KMBL/MBL METAR and TAF weather

Enter ICAO airport designator
Station Type Date Time Source
KMBL METAR 2021/05/13 05:56 UTC NOAA

KMBL 130556Z AUTO 11003KT 10SM CLR M03/M04 A3040 RMK AO2 SLP302 T10281039 10117 21028 56001 FZRANO


Station Type Date Time Source
KMBL Decoded METAR 2021/05/13 05:56 UTC NOAA

Manistee, Manistee County-Blacker Airport, MI, United States (KMBL) 44-16N 086-15W
May 13, 2021 - 01:56 AM EDT / 2021.05.13 0556 UTC
Wind: from the ESE (110 degrees) at 3 MPH (3 KT):0
Visibility: 10 mile(s):0
Sky conditions: clear
Temperature: 27.0 F (-2.8 C)
Dew Point: 25.0 F (-3.9 C)
Relative Humidity: 92%
Pressure (altimeter): 30.4 in. Hg (1029 hPa)
Pressure tendency: 0.00 inches (0.1 hPa) lower than three hours ago
ob: KMBL 130556Z AUTO 11003KT 10SM CLR M03/M04 A3040 RMK AO2 SLP302 T10281039 10117 21028 56001 FZRANO
cycle: 6

Station Type Date Time Source
KMBL TAF 2021/05/13 06:21 UTC NOAA

TAF KMBL 130520Z 1306/1406 00000KT P6SM SKC
FM131400 28008KT P6SM SKC
FM140000 00000KT P6SM SKC

Example: see airport list